createdAt,value
2023-03-24T08:26:29.677Z,22.9134
2023-03-24T08:27:30.140Z,22.9188
2023-03-24T08:28:30.600Z,23.0446
2023-03-24T08:29:31.814Z,23.4329
2023-03-24T08:30:32.332Z,23.3853
2023-03-24T08:31:32.870Z,23.4249
2023-03-24T08:32:33.374Z,23.4189
2023-03-24T08:34:50.765Z,23.3239
2023-03-24T08:37:45.351Z,23.2179
2023-03-24T08:39:25.012Z,23.0739
2023-03-24T08:41:22.323Z,22.9080
2023-03-24T08:42:22.828Z,22.8333
2023-03-24T08:44:20.028Z,22.8330
2023-03-24T08:45:20.541Z,22.7808
2023-03-24T09:58:40.414Z,21.8531
2023-03-24T09:59:40.903Z,21.8568
2023-03-24T10:00:41.480Z,21.8652
2023-03-24T10:01:41.938Z,21.8760
2023-03-24T10:02:42.489Z,21.8949
2023-03-24T10:04:45.632Z,21.9339
2023-03-24T10:05:46.413Z,21.9544
2023-03-24T10:07:41.288Z,21.9801
2023-03-24T10:08:42.003Z,22.0046
2023-03-24T10:10:50.473Z,22.0459
2023-03-24T10:11:51.117Z,22.0682
2023-03-24T11:21:06.631Z,11.4187
2023-03-24T11:22:07.039Z,11.4529
2023-03-24T11:23:07.427Z,11.5948
2023-03-24T11:24:07.854Z,11.7191
2023-03-24T11:25:08.190Z,11.8729
2023-03-24T11:26:08.638Z,11.9444
2023-03-24T11:27:09.021Z,12.0104
2023-03-24T11:28:09.456Z,11.9469
2023-03-24T11:29:09.865Z,11.8809
2023-03-24T11:30:10.237Z,11.9228
2023-03-24T11:31:10.813Z,11.9694
2023-03-24T11:32:11.314Z,11.9665
2023-03-24T11:33:11.695Z,12.0850
2023-03-24T11:34:12.115Z,12.2862
2023-03-24T11:35:13.609Z,12.4624
2023-03-24T11:36:14.049Z,12.3802
2023-03-24T11:37:14.405Z,12.5036
2023-03-24T11:38:14.814Z,12.8838
2023-03-24T11:39:15.351Z,12.7611
2023-03-24T11:40:15.785Z,12.7098
2023-03-24T11:41:16.435Z,12.5492
2023-03-24T11:42:16.909Z,12.5763
2023-03-24T11:43:17.437Z,12.5799
2023-03-24T11:44:17.841Z,12.5471
2023-03-24T11:45:18.236Z,12.5032
2023-03-24T11:46:18.821Z,12.3123
2023-03-24T11:47:19.250Z,12.2801
2023-03-24T11:48:19.608Z,12.1952
2023-03-24T11:49:20.076Z,12.1765
2023-03-24T11:50:20.443Z,12.0838
2023-03-24T11:51:20.926Z,12.0645
2023-03-24T11:52:21.327Z,12.0718
2023-03-24T11:53:21.753Z,11.9787
2023-03-24T11:54:22.033Z,11.9076
2023-03-24T11:55:22.468Z,11.8637
2023-03-24T11:58:23.170Z,11.6909
2023-03-24T11:59:23.575Z,11.7340
2023-03-24T12:00:23.925Z,11.6491
2023-03-24T12:01:24.243Z,11.5917
2023-03-24T12:02:24.746Z,11.5454
2023-03-24T12:03:25.492Z,11.4572
2023-03-24T12:04:26.012Z,11.4187
2023-03-24T12:05:26.508Z,11.3563
2023-03-24T12:06:26.975Z,11.2989
2023-03-24T12:08:27.651Z,11.1717
2023-03-24T12:09:28.061Z,11.1112
2023-03-24T12:11:28.618Z,11.0306
2023-03-24T12:12:28.959Z,10.9901
2023-03-24T12:13:32.981Z,10.9829
2023-03-24T12:14:29.598Z,10.9795
2023-03-24T12:15:30.059Z,11.0145
2023-03-24T12:16:30.672Z,11.0212
2023-03-24T12:17:31.176Z,10.9648
2023-03-24T12:18:31.635Z,10.9188
2023-03-24T12:19:32.030Z,10.8495
2023-03-24T12:20:32.493Z,10.7666
2023-03-24T12:21:32.878Z,10.7156
2023-03-24T12:22:33.265Z,10.6359
2023-03-24T12:23:33.712Z,10.5985
2023-03-24T12:24:34.089Z,10.5526
2023-03-24T12:25:34.482Z,10.5056
2023-03-24T12:26:34.853Z,10.4671
2023-03-24T12:27:35.484Z,10.4337
2023-03-24T12:30:37.393Z,10.4013
2023-03-24T12:31:37.831Z,10.3595
2023-03-24T12:32:38.438Z,10.3069
2023-03-24T12:35:39.791Z,10.2737
2023-03-24T12:36:40.176Z,10.2377
2023-03-24T12:37:40.571Z,10.2045
2023-03-24T12:38:40.950Z,10.2232
2023-03-24T12:39:41.352Z,10.1854
2023-03-24T12:40:42.273Z,10.1682
2023-03-24T12:41:42.997Z,10.1703
2023-03-24T12:42:43.809Z,10.1659
2023-03-24T12:43:44.576Z,10.1638
2023-03-24T12:44:45.249Z,10.1434
2023-03-24T12:46:48.424Z,10.1459
2023-03-24T12:47:49.818Z,10.1163
2023-03-24T12:48:50.317Z,10.1389
2023-03-24T12:49:50.866Z,10.1217
2023-03-24T12:50:51.364Z,10.0959
2023-03-24T12:53:04.950Z,10.0988
2023-03-24T12:53:54.023Z,10.1113
2023-03-24T12:56:55.876Z,10.0996
2023-03-24T12:57:56.252Z,10.0593
2023-03-24T12:58:56.650Z,10.0277
2023-03-24T12:59:57.022Z,10.0204
2023-03-24T13:00:57.471Z,9.9966
2023-03-24T13:01:57.857Z,9.9847
2023-03-24T13:02:58.345Z,9.9592
2023-03-24T13:03:58.919Z,9.9613
2023-03-24T13:04:59.394Z,9.9548
2023-03-24T13:06:07.382Z,9.9594
2023-03-24T13:08:03.787Z,9.9538
2023-03-24T13:09:04.147Z,9.9430
2023-03-24T13:10:04.579Z,9.9325
2023-03-24T13:11:05.115Z,9.9277
2023-03-24T13:12:06.852Z,9.9016
2023-03-24T13:13:08.541Z,9.8890
2023-03-24T13:14:08.946Z,9.8783
2023-03-24T13:17:09.833Z,9.9044
2023-03-24T13:18:10.275Z,9.9123
2023-03-24T13:19:10.720Z,9.9352
2023-03-24T13:20:11.087Z,9.9441
2023-03-24T13:21:11.493Z,9.9250
2023-03-24T13:23:12.125Z,9.9132
2023-03-24T13:24:14.817Z,9.9067
2023-03-24T13:25:15.860Z,9.8747
2023-03-24T13:26:16.156Z,9.8594
2023-03-24T13:27:16.555Z,9.8524
2023-03-24T13:28:16.970Z,9.8295
2023-03-24T13:29:17.383Z,9.8268
2023-03-24T13:30:17.784Z,9.8320
2023-03-24T13:31:18.099Z,9.8474
2023-03-24T13:32:18.584Z,9.8327
2023-03-24T13:33:18.932Z,9.8255
2023-03-24T13:34:19.355Z,9.8186
2023-03-24T13:35:19.733Z,9.8051
2023-03-24T13:36:20.175Z,9.8011
2023-03-24T13:37:20.705Z,9.8266
2023-03-24T13:38:21.063Z,9.8283
2023-03-24T13:39:21.466Z,9.8684
2023-03-24T13:40:21.867Z,9.8938
2023-03-24T13:41:22.157Z,9.8829
2023-03-24T13:42:22.487Z,9.8663
2023-03-24T13:43:22.856Z,9.8629
2023-03-24T13:44:23.218Z,9.8465
2023-03-24T13:45:23.605Z,9.8388
2023-03-24T13:46:23.930Z,9.8329
2023-03-24T13:47:24.380Z,9.8377
2023-03-24T13:48:24.725Z,9.8180
2023-03-24T13:49:25.063Z,9.7902
2023-03-24T13:50:25.490Z,9.8054
2023-03-24T13:51:25.928Z,9.7898
2023-03-24T13:52:26.315Z,9.8091
2023-03-24T13:53:28.449Z,9.8041
2023-03-24T13:54:28.797Z,9.8217
2023-03-24T13:55:29.176Z,9.8287
2023-03-24T13:56:29.784Z,9.8123
2023-03-24T13:58:30.395Z,9.7549
2023-03-24T13:59:30.714Z,9.7290
2023-03-24T14:01:31.440Z,9.6986
2023-03-24T14:02:31.991Z,9.6658
2023-03-24T14:03:32.535Z,9.7055
2023-03-24T14:04:33.170Z,9.6628
2023-03-24T14:05:33.578Z,9.6477
2023-03-24T14:06:33.948Z,9.6540
2023-03-24T14:07:34.306Z,9.6487
2023-03-24T14:08:34.743Z,9.6416
2023-03-24T14:09:35.191Z,9.6395
2023-03-24T14:10:35.429Z,9.6260
2023-03-24T14:11:35.836Z,9.5977
2023-03-24T14:12:36.148Z,9.5903
2023-03-24T14:13:36.597Z,9.5674
2023-03-24T14:14:36.945Z,9.5562
2023-03-24T14:15:37.318Z,9.5636
2023-03-24T14:16:37.732Z,9.5562
2023-03-24T14:17:38.177Z,9.5611
2023-03-24T14:18:38.490Z,9.5409
2023-03-24T14:19:38.937Z,9.5203
2023-03-24T14:20:39.321Z,9.5352
2023-03-24T14:21:39.642Z,9.5262
2023-03-24T14:22:40.055Z,9.5312
2023-03-24T14:23:40.462Z,9.5123
2023-03-24T14:24:40.814Z,9.4989
2023-03-24T14:25:41.239Z,9.5115
2023-03-24T14:26:41.590Z,9.4961
2023-03-24T14:27:41.995Z,9.4980
2023-03-24T14:28:42.440Z,9.5094
2023-03-24T14:30:43.078Z,9.4734
2023-03-24T14:31:43.526Z,9.4614
2023-03-24T14:32:43.961Z,9.4465
2023-03-24T14:33:44.360Z,9.4308
2023-03-24T14:34:44.653Z,9.4207
2023-03-24T14:35:45.072Z,9.4167
2023-03-24T14:36:45.494Z,9.4032
2023-03-24T14:37:45.927Z,9.3820
2023-03-24T14:38:46.368Z,9.3763
2023-03-24T14:39:46.830Z,9.3502
2023-03-24T14:40:47.089Z,9.3351
2023-03-24T14:42:47.570Z,9.3338
2023-03-24T14:43:47.992Z,9.3221
2023-03-24T14:45:48.802Z,9.2857
2023-03-24T14:46:49.613Z,9.2630
2023-03-24T14:47:50.004Z,9.2727
2023-03-24T14:48:50.383Z,9.3093
2023-03-24T14:49:50.792Z,9.2971
2023-03-24T14:50:51.208Z,9.2893
2023-03-24T14:51:51.581Z,9.2836
2023-03-24T14:52:52.013Z,9.2964
2023-03-24T14:53:52.438Z,9.2826
2023-03-24T14:54:52.715Z,9.2845
2023-03-24T14:55:53.103Z,9.2798
2023-03-24T14:56:53.562Z,9.2914
2023-03-24T14:57:54.014Z,9.2952
2023-03-24T14:58:54.393Z,9.3053
2023-03-24T14:59:54.824Z,9.3280
2023-03-24T15:01:07.022Z,9.3534
2023-03-24T15:01:58.931Z,9.3316
2023-03-24T15:02:59.386Z,9.3351
2023-03-24T15:03:59.778Z,9.3490
2023-03-24T15:05:00.184Z,9.3399
2023-03-24T15:06:00.596Z,9.3351
2023-03-24T15:07:01.001Z,9.3358
2023-03-24T15:08:01.367Z,9.3212
2023-03-24T15:09:01.773Z,9.3181
2023-03-24T15:10:02.197Z,9.3107
2023-03-24T15:11:02.600Z,9.3034
2023-03-24T15:12:02.951Z,9.2981
2023-03-24T15:13:03.367Z,9.2996
2023-03-24T15:14:03.842Z,9.3057
2023-03-24T15:15:04.231Z,9.3114
2023-03-24T15:16:04.655Z,9.3143
2023-03-24T15:17:05.086Z,9.3053
2023-03-24T15:18:05.441Z,9.3145
2023-03-24T15:19:05.915Z,9.3135
2023-03-24T15:20:06.230Z,9.3145
2023-03-24T15:21:06.630Z,9.3221
2023-03-24T15:22:07.035Z,9.3114
2023-03-24T15:23:07.561Z,9.3002
2023-03-24T15:24:08.019Z,9.2880
2023-03-24T15:25:08.391Z,9.2901
2023-03-24T15:27:09.088Z,9.2767
2023-03-24T15:28:09.398Z,9.2699
2023-03-24T15:29:09.756Z,9.2601
2023-03-24T15:30:10.162Z,9.2597
2023-03-24T15:31:10.510Z,9.2462
2023-03-24T15:32:10.902Z,9.2506
2023-03-24T15:33:11.292Z,9.2453
2023-03-24T15:34:11.648Z,9.2390
2023-03-24T15:35:11.969Z,9.2453
2023-03-24T15:36:12.344Z,9.2464
2023-03-24T15:37:12.733Z,9.2597
2023-03-24T15:38:13.170Z,9.2607
2023-03-24T15:39:13.514Z,9.2700
2023-03-24T15:40:15.935Z,9.2697
2023-03-24T15:41:17.535Z,9.2617
2023-03-24T15:42:17.902Z,9.2536
2023-03-24T15:43:18.350Z,9.2502
2023-03-24T15:44:18.742Z,9.2576
2023-03-24T15:45:19.148Z,9.2493
2023-03-24T15:46:19.557Z,9.2462
2023-03-24T15:47:19.953Z,9.2445
2023-03-24T15:48:20.309Z,9.2275
2023-03-24T15:49:20.647Z,9.2201
2023-03-24T15:50:20.977Z,9.2391
2023-03-24T15:51:21.381Z,9.2330
2023-03-24T15:52:21.765Z,9.2546
2023-03-24T15:53:22.145Z,9.2508
2023-03-24T15:54:22.501Z,9.2441
2023-03-24T15:55:22.882Z,9.2523
2023-03-24T15:56:23.293Z,9.2378
2023-03-24T15:57:23.662Z,9.2281
2023-03-24T15:58:24.179Z,9.2409
2023-03-24T15:59:24.590Z,9.2092
2023-03-24T16:00:25.088Z,9.1964
2023-03-24T16:01:25.508Z,9.1934
2023-03-24T16:02:25.971Z,9.1859
2023-03-24T16:03:26.492Z,9.1871
2023-03-24T16:04:27.711Z,9.1642
2023-03-24T16:05:28.140Z,9.1585
2023-03-24T16:06:28.420Z,9.1566
2023-03-24T16:07:28.832Z,9.1606
2023-03-24T16:08:29.220Z,9.1634
2023-03-24T16:09:29.632Z,9.1703
2023-03-24T16:10:30.099Z,9.1732
2023-03-24T16:11:30.453Z,9.1751
2023-03-24T16:12:30.814Z,9.1672
2023-03-24T16:13:31.219Z,9.1653
2023-03-24T16:14:31.591Z,9.1632
2023-03-24T16:15:32.003Z,9.1636
2023-03-24T16:16:32.470Z,9.1979
2023-03-24T16:17:32.898Z,9.1863
2023-03-24T16:18:34.318Z,9.1642
2023-03-24T16:19:34.720Z,9.1117
2023-03-24T16:20:35.174Z,9.2023
2023-03-24T16:21:35.590Z,9.2266
2023-03-24T16:22:35.998Z,9.2283
2023-03-24T16:23:36.450Z,9.2056
2023-03-24T16:24:36.823Z,9.2033
2023-03-24T16:25:37.184Z,9.1772
2023-03-24T16:26:37.461Z,9.1752
2023-03-24T16:27:37.823Z,9.1594
2023-03-24T16:28:38.261Z,9.1260
2023-03-24T16:29:38.702Z,9.1300
2023-03-24T16:30:39.208Z,9.1125
2023-03-24T16:31:39.610Z,9.1108
2023-03-24T16:32:40.034Z,9.0883
2023-03-24T16:33:40.455Z,9.0965
2023-03-24T16:34:40.843Z,9.0824
2023-03-24T16:35:41.306Z,9.0455
2023-03-24T16:36:41.828Z,9.0036
2023-03-24T16:37:42.222Z,8.9862
2023-03-24T16:38:42.593Z,8.9843
2023-03-24T16:39:43.074Z,8.9933
2023-03-24T16:40:43.476Z,9.0293
2023-03-24T16:41:43.771Z,9.0558
2023-03-24T16:42:44.154Z,9.0614
2023-03-24T16:43:44.523Z,9.0717
2023-03-24T16:44:44.931Z,9.0576
2023-03-24T16:45:45.410Z,9.0597
2023-03-24T16:46:46.617Z,9.0434
2023-03-24T16:47:47.581Z,9.0303
2023-03-24T16:48:48.075Z,9.0434
2023-03-24T16:50:48.800Z,9.0114
2023-03-24T16:51:49.686Z,9.0057
2023-03-24T16:52:50.066Z,9.0122
2023-03-24T16:53:50.452Z,9.0131
2023-03-24T16:54:50.829Z,9.0280
2023-03-24T16:55:51.267Z,9.0314
2023-03-24T16:56:51.552Z,9.0200
2023-03-24T16:57:51.868Z,9.0171
2023-03-24T16:58:52.232Z,9.0114
2023-03-24T16:59:52.593Z,8.9895
2023-03-24T17:00:52.978Z,9.0221
2023-03-24T17:01:53.488Z,9.0261
2023-03-24T17:02:54.041Z,9.0557
2023-03-24T17:03:54.633Z,9.0682
2023-03-24T17:05:55.390Z,9.0253
2023-03-24T17:06:55.802Z,9.0406
2023-03-24T17:07:56.253Z,9.0034
2023-03-24T17:08:56.669Z,9.0124
2023-03-24T17:09:57.055Z,8.9946
2023-03-24T17:10:57.455Z,8.9885
2023-03-24T17:11:57.956Z,8.9561
2023-03-24T17:12:58.378Z,8.9340
2023-03-24T17:13:58.639Z,8.9712
2023-03-24T17:14:59.055Z,8.9502
2023-03-24T17:15:59.472Z,8.9443
2023-03-24T17:16:59.901Z,8.9670
2023-03-24T17:18:00.292Z,8.9824
2023-03-24T17:19:00.716Z,9.0057
2023-03-24T17:20:03.990Z,8.9822
2023-03-24T17:21:01.766Z,8.9754
2023-03-24T17:22:02.275Z,8.9981
2023-03-24T17:23:03.182Z,8.9895
2023-03-24T17:24:03.620Z,8.9479
2023-03-24T17:25:04.001Z,8.8991
2023-03-24T17:26:04.431Z,8.8808
2023-03-24T17:27:04.820Z,8.8762
2023-03-24T17:28:05.205Z,8.8340
2023-03-24T17:31:06.035Z,8.7715
2023-03-24T17:32:06.396Z,8.7364
2023-03-24T17:34:20.674Z,8.7760
2023-03-24T17:35:08.938Z,8.7601
2023-03-24T17:36:09.236Z,8.7394
2023-03-24T17:37:09.565Z,8.7167
2023-03-24T17:38:09.925Z,8.6990
2023-03-24T17:39:10.330Z,8.6820
2023-03-24T17:40:10.747Z,8.6982
2023-03-24T17:41:11.199Z,8.6940
2023-03-24T17:43:11.674Z,8.6301
2023-03-24T17:44:12.052Z,8.6555
2023-03-24T17:45:12.421Z,8.6879
2023-03-24T17:46:12.713Z,8.6711
2023-03-24T17:47:13.135Z,8.6639
2023-03-24T17:48:13.540Z,8.5918
2023-03-24T17:49:13.894Z,8.5458
2023-03-24T17:51:14.574Z,8.5220
2023-03-24T17:52:14.985Z,8.4628
2023-03-24T17:53:15.361Z,8.4718
2023-03-24T17:55:16.012Z,8.4470
2023-03-24T17:56:16.425Z,8.3865
2023-03-24T17:57:16.824Z,8.3310
2023-03-24T17:58:17.209Z,8.3518
2023-03-24T17:59:17.612Z,8.3244
2023-03-24T18:00:18.001Z,8.3680
2023-03-24T18:01:18.548Z,8.3682
2023-03-24T18:02:19.010Z,8.3371
2023-03-24T18:03:19.357Z,8.2820
2023-03-24T18:04:19.794Z,8.2504
2023-03-24T18:06:20.402Z,8.1683
2023-03-24T18:07:20.756Z,8.1285
2023-03-24T18:08:21.104Z,8.0804
2023-03-24T18:09:21.401Z,8.0264
2023-03-24T18:10:21.811Z,8.0039
2023-03-24T18:11:22.150Z,7.9686
2023-03-24T18:12:22.543Z,7.9416
2023-03-24T18:13:22.836Z,7.9303
2023-03-24T18:14:23.217Z,7.9034
2023-03-24T18:15:23.588Z,7.8792
2023-03-24T18:16:24.350Z,7.8798
2023-03-24T18:17:24.803Z,7.8508
2023-03-24T18:18:25.211Z,7.8254
2023-03-24T18:19:25.665Z,7.8126
2023-03-24T18:20:26.169Z,7.7827
2023-03-24T18:22:26.800Z,7.8098
2023-03-24T18:23:27.212Z,7.8017
2023-03-24T18:24:27.622Z,7.7575
2023-03-24T18:25:27.987Z,7.7430
2023-03-24T18:26:28.305Z,7.7672
2023-03-24T18:27:28.700Z,7.7907
2023-03-24T18:28:29.108Z,7.8307
2023-03-24T18:29:29.558Z,7.8386
2023-03-24T18:32:30.400Z,7.8927
2023-03-24T18:33:30.808Z,7.9103
2023-03-24T18:34:31.179Z,7.8925
2023-03-24T18:35:31.622Z,7.8693
2023-03-24T18:36:32.267Z,7.9265
2023-03-24T18:37:32.907Z,7.9856
2023-03-24T18:38:33.514Z,8.0365
2023-03-24T18:40:34.570Z,7.9795
2023-03-24T18:41:35.017Z,7.9627
2023-03-24T18:42:35.295Z,7.9196
2023-03-24T18:43:35.678Z,7.8563
2023-03-24T18:44:36.093Z,7.8265
2023-03-24T18:45:36.486Z,7.9410
2023-03-24T18:46:37.038Z,8.0091
2023-03-24T18:47:37.371Z,7.9664
2023-03-24T18:48:37.814Z,7.9316
2023-03-24T18:49:38.179Z,7.8159
2023-03-24T18:50:38.600Z,7.8099
2023-03-24T18:51:39.032Z,7.7304
2023-03-24T18:52:39.396Z,7.7649
2023-03-24T18:53:39.834Z,7.7312
2023-03-24T18:54:40.223Z,7.6459
2023-03-24T18:55:40.709Z,7.5769
2023-03-24T18:56:41.117Z,7.6942
2023-03-24T18:57:41.471Z,7.7457
2023-03-24T18:58:41.826Z,7.8159
2023-03-24T18:59:42.229Z,7.6822
2023-03-24T19:00:42.598Z,7.7737
2023-03-24T19:01:43.035Z,7.8510
2023-03-24T19:02:43.492Z,7.8641
2023-03-24T19:03:44.127Z,7.7768
2023-03-24T19:04:44.571Z,7.8140
2023-03-24T19:05:45.288Z,7.7031
2023-03-24T19:07:45.992Z,7.5296
2023-03-24T19:08:46.406Z,7.7398
2023-03-24T19:09:46.809Z,7.7842
2023-03-24T19:10:47.165Z,7.7024
2023-03-24T19:11:47.528Z,7.6318
2023-03-24T19:12:47.913Z,7.5267
2023-03-24T19:13:48.306Z,7.6608
2023-03-24T19:15:49.219Z,7.4315
2023-03-24T19:16:50.340Z,7.4681
2023-03-24T19:17:50.619Z,7.5013
2023-03-24T19:18:51.090Z,7.5938
2023-03-24T19:19:51.454Z,7.6423
2023-03-24T19:20:51.812Z,7.5828
2023-03-24T19:21:52.067Z,7.5958
2023-03-24T19:22:52.437Z,7.5444
2023-03-24T19:23:53.188Z,7.5851
2023-03-24T19:25:53.982Z,7.4477
2023-03-24T19:26:54.382Z,7.5969
2023-03-24T19:27:54.784Z,7.4697
2023-03-24T19:28:55.170Z,7.3814
2023-03-24T19:29:55.617Z,7.5063
2023-03-24T19:30:56.002Z,7.5103
2023-03-24T19:31:56.394Z,7.5471
2023-03-24T19:32:56.950Z,7.5429
2023-03-24T19:33:57.506Z,7.6120
2023-03-24T19:35:58.111Z,7.5397
2023-03-24T19:36:58.614Z,7.4208
2023-03-24T19:37:58.995Z,7.4470
2023-03-24T19:38:59.306Z,7.3089
2023-03-24T19:39:59.675Z,7.3033
2023-03-24T19:41:00.124Z,7.2683
2023-03-24T19:42:00.577Z,7.3135
2023-03-24T19:43:00.953Z,7.3835
2023-03-24T19:44:01.373Z,7.3136
2023-03-24T19:45:01.772Z,7.3754
2023-03-24T19:46:02.165Z,7.3405
2023-03-24T19:47:02.468Z,7.3215
2023-03-24T19:48:02.977Z,7.3795
2023-03-24T19:49:03.475Z,7.3400
2023-03-24T19:50:03.738Z,7.3682
2023-03-24T19:51:04.127Z,7.4414
2023-03-24T19:53:04.884Z,7.2272
2023-03-24T19:54:05.476Z,7.2473
2023-03-24T19:55:05.918Z,7.2395
2023-03-24T19:56:06.330Z,7.2875
2023-03-24T19:57:06.715Z,7.3005
2023-03-24T19:58:07.172Z,7.2734
2023-03-24T19:59:07.562Z,7.2852
2023-03-24T20:01:08.221Z,7.3268
2023-03-24T20:02:08.677Z,7.2934
2023-03-24T20:03:09.379Z,7.3747
2023-03-24T20:04:09.981Z,7.4426
2023-03-24T20:06:10.561Z,7.2724
2023-03-24T20:07:11.001Z,7.4081
2023-03-24T20:08:11.418Z,7.3383
2023-03-24T20:09:11.836Z,7.2612
2023-03-24T20:10:12.256Z,7.1862
2023-03-24T20:11:12.683Z,7.0636
2023-03-24T20:12:13.185Z,7.0724
2023-03-24T20:13:13.598Z,7.2295
2023-03-24T20:14:14.134Z,7.3217
2023-03-24T20:15:14.510Z,7.2198
2023-03-24T20:16:14.972Z,7.1801
2023-03-24T20:17:15.357Z,7.1820
2023-03-24T20:18:15.871Z,7.2543
2023-03-24T20:19:16.332Z,7.2196
2023-03-24T20:20:16.799Z,7.2564
2023-03-24T20:22:17.505Z,7.1317
2023-03-24T20:23:18.087Z,7.1761
2023-03-24T20:25:18.754Z,7.0806
2023-03-24T20:26:19.032Z,7.2152
2023-03-24T20:27:19.378Z,7.2747
2023-03-24T20:28:19.782Z,7.2904
2023-03-24T20:29:20.144Z,7.3770
2023-03-24T20:30:20.554Z,7.4802
2023-03-24T20:31:21.070Z,7.3713
2023-03-24T20:32:21.522Z,7.4683
2023-03-24T20:33:22.126Z,7.4277
2023-03-24T20:34:22.594Z,7.4432
2023-03-24T20:35:23.163Z,7.3697
2023-03-24T20:36:23.678Z,7.3363
2023-03-24T20:37:24.130Z,7.3930
2023-03-24T20:38:24.515Z,7.3346
2023-03-24T20:39:25.006Z,7.2923
2023-03-24T20:40:25.570Z,7.4212
2023-03-24T20:41:26.052Z,7.3693
2023-03-24T20:42:26.489Z,7.3590
2023-03-24T20:43:26.936Z,7.3838
2023-03-24T20:44:27.251Z,7.3573
2023-03-24T20:45:27.826Z,7.4239
2023-03-24T20:46:28.462Z,7.2856
2023-03-24T20:47:28.979Z,7.2505
2023-03-24T20:48:30.381Z,7.2898
2023-03-24T20:49:30.778Z,7.3140
2023-03-24T20:50:31.254Z,7.3301
2023-03-24T20:51:31.684Z,7.4870
2023-03-24T20:52:32.078Z,7.3323
2023-03-24T20:53:32.542Z,7.1599
2023-03-24T20:54:32.878Z,7.2229
2023-03-24T20:55:33.371Z,7.3241
2023-03-24T20:56:34.036Z,7.4378
2023-03-24T20:57:34.405Z,7.3392
2023-03-24T20:58:34.885Z,7.3480
2023-03-24T20:59:35.263Z,7.5004
2023-03-24T21:00:35.729Z,7.4683
2023-03-24T21:01:36.328Z,7.5500
2023-03-24T21:02:37.244Z,7.5095
2023-03-24T21:03:37.743Z,7.4248
2023-03-24T21:05:38.407Z,7.2740
2023-03-24T21:06:38.837Z,7.3123
2023-03-24T21:07:39.203Z,7.2923
2023-03-24T21:08:39.628Z,7.3360
2023-03-24T21:09:40.032Z,7.5122
2023-03-24T21:10:40.485Z,7.6591
2023-03-24T21:11:40.945Z,7.5107
2023-03-24T21:12:53.096Z,7.3856
2023-03-24T21:14:45.090Z,7.3535
2023-03-24T21:16:45.708Z,7.4388
2023-03-24T21:17:46.146Z,7.5046
2023-03-24T21:18:46.645Z,7.6289
2023-03-24T21:19:47.140Z,7.5807
2023-03-24T21:20:47.540Z,7.5710
2023-03-24T21:21:47.821Z,7.6263
2023-03-24T21:22:48.231Z,7.6690
2023-03-24T21:23:48.641Z,7.7247
2023-03-24T21:24:49.094Z,7.6421
2023-03-24T21:25:49.537Z,7.6921
2023-03-24T21:26:50.509Z,7.7110
2023-03-24T21:27:50.882Z,7.6543
2023-03-24T21:28:51.282Z,7.5834
2023-03-24T21:29:51.666Z,7.5708
2023-03-24T21:30:52.151Z,7.5433
2023-03-24T21:31:52.524Z,7.5601
2023-03-24T21:32:52.914Z,7.5114
2023-03-24T21:33:53.427Z,7.4884
2023-03-24T21:34:53.981Z,7.5204
2023-03-24T21:35:54.392Z,7.5227
2023-03-24T21:36:54.804Z,7.4882
2023-03-24T21:37:55.261Z,7.3426
2023-03-24T21:38:55.647Z,7.4731
2023-03-24T21:39:56.095Z,7.2892
2023-03-24T21:40:56.484Z,7.1912
2023-03-24T21:41:57.017Z,7.2803
2023-03-24T21:42:57.414Z,7.2736
2023-03-24T21:43:57.850Z,7.4050
2023-03-24T21:44:58.100Z,7.4475
2023-03-24T21:45:58.443Z,7.2786
2023-03-24T21:46:58.837Z,7.3251
2023-03-24T21:47:59.169Z,7.3648
2023-03-24T21:48:59.700Z,7.5731
2023-03-24T21:50:00.128Z,7.5366
2023-03-24T21:51:00.524Z,7.4100
2023-03-24T21:52:00.812Z,7.5114
2023-03-24T21:53:01.112Z,7.3589
2023-03-24T21:54:01.481Z,7.4701
2023-03-24T21:55:01.894Z,7.4580
2023-03-24T21:56:02.253Z,7.5500
2023-03-24T21:57:02.737Z,7.6116
2023-03-24T21:58:03.112Z,7.5879
2023-03-24T21:59:03.560Z,7.6129
2023-03-24T22:00:05.046Z,7.4870
2023-03-24T22:01:05.406Z,7.5849
2023-03-24T22:02:05.794Z,7.5336
2023-03-24T22:03:06.212Z,7.5649
2023-03-24T22:04:06.714Z,7.5603
2023-03-24T22:05:07.119Z,7.5105
2023-03-24T22:06:07.551Z,7.5526
2023-03-24T22:07:07.945Z,7.4630
2023-03-24T22:08:08.322Z,7.4216
2023-03-24T22:09:08.697Z,7.4825
2023-03-24T22:10:09.112Z,7.5095
2023-03-24T22:11:09.460Z,7.4620
2023-03-24T22:12:09.891Z,7.3547
2023-03-24T22:13:10.366Z,7.4672
2023-03-24T22:14:10.707Z,7.5599
2023-03-24T22:15:11.080Z,7.6659
2023-03-24T22:16:11.751Z,7.6120
2023-03-24T22:17:12.195Z,7.5708
2023-03-24T22:18:12.597Z,7.7081
2023-03-24T22:19:12.964Z,7.8038
2023-03-24T22:20:13.371Z,7.8281
2023-03-24T22:21:13.757Z,7.7159
2023-03-24T22:22:14.148Z,7.6680
2023-03-24T22:23:14.591Z,7.5454
2023-03-24T22:24:14.965Z,7.5929
2023-03-24T22:25:15.358Z,7.5658
2023-03-24T22:26:15.726Z,7.4783
2023-03-24T22:27:16.119Z,7.4559
2023-03-24T22:28:16.562Z,7.3632
2023-03-24T22:29:16.956Z,7.4378
2023-03-24T22:30:17.236Z,7.6368
2023-03-24T22:31:17.528Z,7.6505
2023-03-24T22:32:18.002Z,7.7657
2023-03-24T22:33:18.490Z,7.7329
2023-03-24T22:34:18.799Z,7.7895
2023-03-24T22:35:19.245Z,7.8027
2023-03-24T22:36:19.624Z,7.8328
2023-03-24T22:37:20.044Z,7.8590
2023-03-24T22:38:20.392Z,7.7970
2023-03-24T22:39:20.790Z,7.7886
2023-03-24T22:40:21.179Z,7.8380
2023-03-24T22:41:21.827Z,7.9026
2023-03-24T22:42:22.188Z,7.9595
2023-03-24T22:44:22.766Z,7.9030
2023-03-24T22:45:23.163Z,7.8988
2023-03-24T22:46:23.581Z,7.9170
2023-03-24T22:47:24.083Z,7.9398
2023-03-24T22:48:24.596Z,7.9334
2023-03-24T22:49:24.954Z,7.9253
2023-03-24T22:50:25.356Z,7.9223
2023-03-24T22:51:25.760Z,7.9122
2023-03-24T22:52:27.697Z,7.9337
2023-03-24T22:53:28.563Z,7.9175
2023-03-24T22:54:28.918Z,7.8731
2023-03-24T22:55:29.296Z,7.8685
2023-03-24T22:56:29.694Z,7.8439
2023-03-24T22:57:30.116Z,7.8017
2023-03-24T22:58:30.458Z,7.7462
2023-03-24T22:59:30.774Z,7.7001
2023-03-24T23:00:31.666Z,7.6413
2023-03-24T23:02:32.492Z,7.6179
2023-03-24T23:03:33.053Z,7.5595
2023-03-24T23:04:33.469Z,7.5690
2023-03-24T23:05:34.202Z,7.5689
2023-03-24T23:06:34.838Z,7.4582
2023-03-24T23:07:35.258Z,7.4517
2023-03-24T23:08:35.638Z,7.4468
2023-03-24T23:09:36.058Z,7.4268
2023-03-24T23:10:36.467Z,7.4569
2023-03-24T23:11:36.887Z,7.4468
2023-03-24T23:12:37.301Z,7.4475
2023-03-24T23:13:37.701Z,7.3701
2023-03-24T23:16:38.586Z,7.4680
2023-03-24T23:17:38.945Z,7.4720
2023-03-24T23:18:39.374Z,7.4826
2023-03-24T23:19:39.700Z,7.5368
2023-03-24T23:20:40.080Z,7.4884
2023-03-24T23:21:40.467Z,7.4813
2023-03-24T23:22:40.831Z,7.5010
2023-03-24T23:23:41.213Z,7.4811
2023-03-24T23:24:41.608Z,7.4538
2023-03-24T23:25:42.036Z,7.4332
2023-03-24T23:26:42.393Z,7.4189
2023-03-24T23:27:42.815Z,7.4077
2023-03-24T23:28:43.228Z,7.4771
2023-03-24T23:29:43.630Z,7.4945
2023-03-24T23:30:44.010Z,7.5044
2023-03-24T23:31:44.350Z,7.5217
2023-03-24T23:32:44.680Z,7.5721
2023-03-24T23:33:45.259Z,7.5809
2023-03-24T23:35:45.911Z,7.6015
2023-03-24T23:36:46.750Z,7.5361
2023-03-24T23:37:47.414Z,7.5002
2023-03-24T23:38:47.898Z,7.4151
2023-03-24T23:39:48.331Z,7.4550
2023-03-24T23:40:48.613Z,7.5053
2023-03-24T23:41:48.881Z,7.5958
2023-03-24T23:42:49.221Z,7.5298
2023-03-24T23:43:49.637Z,7.5074
2023-03-24T23:44:50.035Z,7.4264
2023-03-24T23:46:50.686Z,7.3934
2023-03-24T23:47:51.093Z,7.3392
2023-03-24T23:48:51.477Z,7.3198
2023-03-24T23:50:53.683Z,7.2084
2023-03-24T23:51:54.099Z,7.1368
2023-03-24T23:52:54.453Z,7.0686
2023-03-24T23:53:54.873Z,7.1136
2023-03-24T23:54:56.280Z,7.0665
2023-03-24T23:55:56.636Z,7.0657
2023-03-24T23:56:57.199Z,7.0048
2023-03-24T23:57:57.673Z,6.9497
2023-03-24T23:58:58.041Z,6.9305
2023-03-24T23:59:58.403Z,6.8954
